createdAt,value
2019-03-29T00:02:04.313Z,8.73
2019-03-29T00:04:34.184Z,8.17
2019-03-29T00:07:04.258Z,7.80
2019-03-29T00:09:34.256Z,8.70
2019-03-29T00:12:04.924Z,9.50
2019-03-29T00:14:34.942Z,11.43
2019-03-29T00:17:04.808Z,10.60
2019-03-29T00:19:34.721Z,9.87
2019-03-29T00:22:05.117Z,11.83
2019-03-29T00:24:35.277Z,9.70
2019-03-29T00:27:05.133Z,11.00
2019-03-29T00:29:34.990Z,9.70
2019-03-29T00:32:05.935Z,9.10
2019-03-29T00:34:36.063Z,13.40
2019-03-29T00:37:05.919Z,10.00
2019-03-29T00:39:35.775Z,10.80
2019-03-29T00:42:05.801Z,10.27
2019-03-29T00:44:35.721Z,9.00
2019-03-29T00:47:05.575Z,10.10
2019-03-29T00:49:35.444Z,10.40
2019-03-29T00:52:05.918Z,9.70
2019-03-29T00:54:36.653Z,9.90
2019-03-29T00:57:08.478Z,9.77
2019-03-29T00:59:38.867Z,10.83
2019-03-29T01:02:09.006Z,12.23
2019-03-29T01:04:40.342Z,12.23
2019-03-29T01:07:10.362Z,12.67
2019-03-29T01:09:40.342Z,13.27
2019-03-29T01:12:10.338Z,12.10
2019-03-29T01:14:40.187Z,11.20
2019-03-29T01:17:10.066Z,11.93
2019-03-29T01:19:40.013Z,11.87
2019-03-29T01:22:09.929Z,10.50
2019-03-29T01:24:39.791Z,12.00
2019-03-29T01:27:09.651Z,11.77
2019-03-29T01:29:39.601Z,14.57
2019-03-29T01:32:09.472Z,12.93
2019-03-29T01:34:39.400Z,10.37
2019-03-29T01:37:09.360Z,8.93
2019-03-29T01:39:39.279Z,9.73
2019-03-29T01:42:09.315Z,11.50
2019-03-29T01:44:39.178Z,10.00
2019-03-29T01:47:09.056Z,9.77
2019-03-29T01:49:38.968Z,12.23
2019-03-29T01:52:08.852Z,16.60
2019-03-29T01:54:38.820Z,16.03
2019-03-29T01:57:08.796Z,16.83
2019-03-29T01:59:39.748Z,22.07
2019-03-29T02:02:09.655Z,23.70
2019-03-29T02:04:39.613Z,21.90
2019-03-29T02:07:11.394Z,20.33
2019-03-29T02:09:43.034Z,19.60
2019-03-29T02:12:12.891Z,19.63
2019-03-29T02:14:42.773Z,15.37
2019-03-29T02:17:12.628Z,15.50
2019-03-29T02:19:43.466Z,10.83
2019-03-29T02:22:13.325Z,11.07
2019-03-29T02:24:43.186Z,12.33
2019-03-29T02:27:13.275Z,10.47
2019-03-29T02:29:43.156Z,11.53
2019-03-29T02:32:13.084Z,11.63
2019-03-29T02:34:43.898Z,10.53
2019-03-29T02:37:14.172Z,12.27
2019-03-29T02:39:44.110Z,12.40
2019-03-29T02:42:16.119Z,9.93
2019-03-29T02:44:45.994Z,11.27
2019-03-29T02:47:15.887Z,10.43
2019-03-29T02:49:45.814Z,11.00
2019-03-29T02:52:15.763Z,10.27
2019-03-29T02:54:45.686Z,12.07
2019-03-29T02:57:15.634Z,12.10
2019-03-29T02:59:45.564Z,10.63
2019-03-29T03:02:15.434Z,10.27
2019-03-29T03:04:45.386Z,12.47
2019-03-29T03:07:15.243Z,12.07
2019-03-29T03:09:45.194Z,12.17
2019-03-29T03:12:15.139Z,13.00
2019-03-29T03:14:45.167Z,11.73
2019-03-29T03:17:15.114Z,10.50
2019-03-29T03:19:45.057Z,13.53
2019-03-29T03:22:14.916Z,13.87
2019-03-29T03:24:44.880Z,13.20
2019-03-29T03:27:14.835Z,13.70
2019-03-29T03:29:48.214Z,11.83
2019-03-29T03:32:17.410Z,13.47
2019-03-29T03:34:47.422Z,13.33
2019-03-29T03:37:17.341Z,14.00
2019-03-29T03:39:47.242Z,11.93
2019-03-29T03:42:17.172Z,13.93
2019-03-29T03:44:47.267Z,12.83
2019-03-29T03:47:17.343Z,10.13
2019-03-29T03:49:47.279Z,11.67
2019-03-29T03:52:17.242Z,11.73
2019-03-29T03:54:47.237Z,12.20
2019-03-29T03:57:20.266Z,10.63
2019-03-29T03:59:51.256Z,10.40
2019-03-29T04:02:21.205Z,12.10
2019-03-29T04:04:51.065Z,11.33
2019-03-29T04:07:22.099Z,12.20
2019-03-29T04:09:52.098Z,10.80
2019-03-29T04:12:22.054Z,13.37
2019-03-29T04:14:51.973Z,13.27
2019-03-29T04:17:21.844Z,11.67
2019-03-29T04:19:51.768Z,13.40
2019-03-29T04:22:21.625Z,11.77
2019-03-29T04:24:51.558Z,13.10
2019-03-29T04:27:21.416Z,12.13
2019-03-29T04:29:51.338Z,11.30
2019-03-29T04:32:21.284Z,13.60
2019-03-29T04:34:51.291Z,13.43
2019-03-29T04:37:21.212Z,13.27
2019-03-29T04:40:06.257Z,14.00
2019-03-29T04:42:23.793Z,15.23
2019-03-29T04:44:53.732Z,15.27
2019-03-29T04:47:23.708Z,13.90
2019-03-29T04:49:53.656Z,13.53
2019-03-29T04:52:23.665Z,14.90
2019-03-29T04:54:53.508Z,13.50
2019-03-29T04:57:23.382Z,14.67
2019-03-29T04:59:53.251Z,17.33
2019-03-29T05:02:23.184Z,15.57
2019-03-29T05:04:53.072Z,17.10
2019-03-29T05:07:23.008Z,14.87
2019-03-29T05:09:52.985Z,17.03
2019-03-29T05:12:22.844Z,15.10
2019-03-29T05:14:52.793Z,14.30
2019-03-29T05:17:22.637Z,19.40
2019-03-29T05:19:52.518Z,15.80
2019-03-29T05:22:22.515Z,17.23
2019-03-29T05:24:52.505Z,15.97
2019-03-29T05:27:22.439Z,15.83
2019-03-29T05:29:52.470Z,16.20
2019-03-29T05:32:22.356Z,17.70
2019-03-29T05:34:52.257Z,16.57
2019-03-29T05:37:22.232Z,16.10
2019-03-29T05:39:52.148Z,15.53
2019-03-29T05:42:22.038Z,13.97
2019-03-29T05:44:51.887Z,15.17
2019-03-29T05:47:21.768Z,15.27
2019-03-29T05:49:51.856Z,17.87
2019-03-29T05:52:21.764Z,13.30
2019-03-29T05:54:51.657Z,13.53
2019-03-29T05:57:23.068Z,15.43
2019-03-29T05:59:53.503Z,13.90
2019-03-29T06:02:23.486Z,14.10
2019-03-29T06:04:54.485Z,13.20
2019-03-29T06:07:24.724Z,10.87
2019-03-29T06:09:54.617Z,12.03
2019-03-29T06:12:24.647Z,13.10
2019-03-29T06:14:54.559Z,12.97
2019-03-29T06:17:24.519Z,11.60
2019-03-29T06:19:54.456Z,11.73
2019-03-29T06:22:43.664Z,14.60
2019-03-29T06:25:13.776Z,12.47
2019-03-29T06:27:43.905Z,11.47
2019-03-29T06:30:16.991Z,12.23
2019-03-29T06:32:46.919Z,13.33
2019-03-29T06:35:16.885Z,17.03
2019-03-29T06:37:47.487Z,14.77
2019-03-29T06:40:25.357Z,15.00
2019-03-29T06:42:55.379Z,14.57
2019-03-29T06:45:25.336Z,12.83
2019-03-29T06:47:55.267Z,13.50
2019-03-29T06:50:25.227Z,13.90
2019-03-29T06:52:55.084Z,16.27
2019-03-29T06:55:25.012Z,15.43
2019-03-29T06:57:54.882Z,15.00
2019-03-29T07:00:24.837Z,14.40
2019-03-29T07:02:54.834Z,16.40
2019-03-29T07:05:24.790Z,14.43
2019-03-29T07:07:54.915Z,17.27
2019-03-29T07:10:24.846Z,15.17
2019-03-29T07:12:56.386Z,16.00
2019-03-29T07:15:26.613Z,15.20
2019-03-29T07:17:56.561Z,15.50
2019-03-29T07:20:27.487Z,13.83
2019-03-29T07:22:57.431Z,13.50
2019-03-29T07:25:27.361Z,14.20
2019-03-29T07:27:57.262Z,13.43
2019-03-29T07:30:27.191Z,15.30
2019-03-29T07:32:57.039Z,13.40
2019-03-29T07:35:26.916Z,14.63
2019-03-29T07:37:57.847Z,12.13
2019-03-29T07:40:27.732Z,12.63
2019-03-29T07:42:57.600Z,12.03
2019-03-29T07:45:35.707Z,12.57
2019-03-29T07:48:16.639Z,12.90
2019-03-29T07:50:58.725Z,11.40
2019-03-29T07:53:31.767Z,11.20
2019-03-29T07:56:01.752Z,12.10
2019-03-29T07:58:32.679Z,11.20
2019-03-29T08:01:02.584Z,11.50
2019-03-29T08:03:32.472Z,10.97
2019-03-29T08:06:02.340Z,12.10
2019-03-29T08:08:34.422Z,10.60
2019-03-29T08:11:03.927Z,10.00
2019-03-29T08:13:33.872Z,7.97
2019-03-29T08:16:06.570Z,9.23
2019-03-29T08:18:35.383Z,8.53
2019-03-29T08:21:05.317Z,8.63
2019-03-29T08:23:35.194Z,8.10
2019-03-29T08:26:05.207Z,8.30
2019-03-29T08:28:35.116Z,7.87
2019-03-29T08:31:05.134Z,7.50
2019-03-29T08:33:35.208Z,8.33
2019-03-29T08:36:05.059Z,7.47
2019-03-29T08:38:34.929Z,6.77
2019-03-29T08:41:04.876Z,8.27
2019-03-29T08:43:34.745Z,7.13
2019-03-29T08:46:04.762Z,8.30
2019-03-29T08:48:34.715Z,7.60
2019-03-29T08:51:04.747Z,7.00
2019-03-29T08:53:34.650Z,9.23
2019-03-29T08:56:04.599Z,7.43
2019-03-29T08:58:34.460Z,5.87
2019-03-29T09:01:04.494Z,5.67
2019-03-29T09:03:35.061Z,5.70
2019-03-29T09:06:05.141Z,6.13
2019-03-29T09:08:35.198Z,4.43
2019-03-29T09:11:07.653Z,4.17
2019-03-29T09:13:36.749Z,4.53
2019-03-29T09:16:06.655Z,3.83
2019-03-29T09:18:36.581Z,3.80
2019-03-29T09:21:07.261Z,5.60
2019-03-29T09:23:38.879Z,5.53
2019-03-29T09:26:09.364Z,4.47
2019-03-29T09:28:39.432Z,4.70
2019-03-29T09:31:09.276Z,5.20
2019-03-29T09:33:39.148Z,4.27
2019-03-29T09:36:09.276Z,4.07
2019-03-29T09:38:39.252Z,4.47
2019-03-29T09:41:09.351Z,3.67
2019-03-29T09:43:39.291Z,3.73
2019-03-29T09:46:09.219Z,4.07
2019-03-29T09:48:39.077Z,4.00
2019-03-29T09:51:09.011Z,3.67
2019-03-29T09:53:41.233Z,3.30
2019-03-29T09:56:10.403Z,3.63
2019-03-29T09:58:40.252Z,4.00
2019-03-29T10:01:10.188Z,4.30
2019-03-29T10:03:40.150Z,4.43
2019-03-29T10:06:10.076Z,4.73
2019-03-29T10:08:39.940Z,5.03
2019-03-29T10:11:09.798Z,4.47
2019-03-29T10:13:39.732Z,5.13
2019-03-29T10:16:09.665Z,4.93
2019-03-29T10:18:39.679Z,4.87
2019-03-29T10:21:09.575Z,4.80
2019-03-29T10:23:39.465Z,4.23
2019-03-29T10:26:10.952Z,4.63
2019-03-29T10:28:40.893Z,5.63
2019-03-29T10:31:10.823Z,5.40
2019-03-29T10:33:40.755Z,5.17
2019-03-29T10:36:10.613Z,7.20
2019-03-29T10:38:40.535Z,4.10
2019-03-29T10:41:10.378Z,4.63
2019-03-29T10:43:40.429Z,4.93
2019-03-29T10:46:10.412Z,5.10
2019-03-29T10:48:40.305Z,5.13
2019-03-29T10:51:10.160Z,5.47
2019-03-29T10:53:40.028Z,5.53
2019-03-29T10:56:09.977Z,5.43
2019-03-29T10:58:39.902Z,4.53
2019-03-29T11:01:09.827Z,4.77
2019-03-29T11:03:39.712Z,4.50
2019-03-29T11:06:09.620Z,4.50
2019-03-29T11:08:39.505Z,4.33
2019-03-29T11:11:09.355Z,5.00
2019-03-29T11:13:40.943Z,5.63
2019-03-29T11:16:10.904Z,4.73
2019-03-29T11:18:40.773Z,5.13
2019-03-29T11:21:10.700Z,4.80
2019-03-29T11:23:40.619Z,4.80
2019-03-29T11:26:10.469Z,5.27
2019-03-29T11:28:40.359Z,5.37
2019-03-29T11:31:10.284Z,5.93
2019-03-29T11:33:40.784Z,7.10
2019-03-29T11:36:10.952Z,5.93
2019-03-29T11:38:40.896Z,6.37
2019-03-29T11:41:10.738Z,5.43
2019-03-29T11:43:40.610Z,5.50
2019-03-29T11:46:10.526Z,5.47
2019-03-29T11:48:40.394Z,4.90
2019-03-29T11:51:19.124Z,5.10
2019-03-29T11:53:42.024Z,4.80
2019-03-29T11:56:11.951Z,5.00
2019-03-29T11:58:41.798Z,5.03
2019-03-29T12:01:11.887Z,5.30
2019-03-29T12:03:41.884Z,4.80
2019-03-29T12:06:11.749Z,4.70
2019-03-29T12:08:42.654Z,4.17
2019-03-29T12:11:12.520Z,5.33
2019-03-29T12:13:42.382Z,4.90
2019-03-29T12:16:12.287Z,5.20
2019-03-29T12:18:42.185Z,5.20
2019-03-29T12:21:12.033Z,4.93
2019-03-29T12:23:42.046Z,5.27
2019-03-29T12:26:11.974Z,5.50
2019-03-29T12:28:41.917Z,5.50
2019-03-29T12:31:12.124Z,6.50
2019-03-29T12:33:41.992Z,5.90
2019-03-29T12:36:12.009Z,5.30
2019-03-29T12:38:41.931Z,5.83
2019-03-29T12:41:11.794Z,5.47
2019-03-29T12:43:54.641Z,5.50
2019-03-29T12:46:13.272Z,5.20
2019-03-29T12:48:43.170Z,4.67
2019-03-29T12:51:13.094Z,5.20
2019-03-29T12:53:43.125Z,5.73
2019-03-29T12:56:12.971Z,5.83
2019-03-29T12:58:42.845Z,5.43
2019-03-29T13:01:13.028Z,5.20
2019-03-29T13:03:42.913Z,5.90
2019-03-29T13:06:12.761Z,5.70
2019-03-29T13:08:42.709Z,6.07
2019-03-29T13:11:12.716Z,5.73
2019-03-29T13:13:42.566Z,5.93
2019-03-29T13:16:12.599Z,6.27
2019-03-29T13:18:42.560Z,5.47
2019-03-29T13:21:12.597Z,5.00
2019-03-29T13:23:42.527Z,5.40
2019-03-29T13:26:12.554Z,6.20
2019-03-29T13:28:42.473Z,6.30
2019-03-29T13:31:12.840Z,6.47
2019-03-29T13:33:42.783Z,7.27
2019-03-29T13:36:12.810Z,5.60
2019-03-29T13:38:42.731Z,6.17
2019-03-29T13:41:12.607Z,6.30
2019-03-29T13:43:42.527Z,8.70
2019-03-29T13:46:12.440Z,6.93
2019-03-29T13:48:42.299Z,6.10
2019-03-29T13:51:12.248Z,6.47
2019-03-29T13:53:42.107Z,5.70
2019-03-29T13:56:12.039Z,5.97
2019-03-29T13:58:41.943Z,6.30
2019-03-29T14:01:11.811Z,6.17
2019-03-29T14:03:41.750Z,5.50
2019-03-29T14:06:11.601Z,6.03
2019-03-29T14:08:41.612Z,5.30
2019-03-29T14:11:11.475Z,6.10
2019-03-29T14:13:41.425Z,7.70
2019-03-29T14:16:11.356Z,5.87
2019-03-29T14:18:41.256Z,5.80
2019-03-29T14:21:11.208Z,6.67
2019-03-29T14:23:41.235Z,5.33
2019-03-29T14:26:11.112Z,5.77
2019-03-29T14:28:41.045Z,6.93
2019-03-29T14:31:10.998Z,6.73
2019-03-29T14:33:40.934Z,5.30
2019-03-29T14:36:10.782Z,5.67
2019-03-29T14:38:40.724Z,5.70
2019-03-29T14:41:10.568Z,5.23
2019-03-29T14:43:40.425Z,5.70
2019-03-29T14:46:10.368Z,6.80
2019-03-29T14:48:40.296Z,6.13
2019-03-29T14:51:10.206Z,5.70
2019-03-29T14:53:40.096Z,5.97
2019-03-29T14:56:10.031Z,6.37
2019-03-29T14:58:39.957Z,6.10
2019-03-29T15:01:22.114Z,5.33
2019-03-29T15:03:52.051Z,5.10
2019-03-29T15:06:21.892Z,7.40
2019-03-29T15:08:51.835Z,5.63
2019-03-29T15:11:22.878Z,6.33
2019-03-29T15:13:52.928Z,6.00
2019-03-29T15:16:22.768Z,7.33
2019-03-29T15:18:52.685Z,8.13
2019-03-29T15:21:22.644Z,9.03
2019-03-29T15:23:52.588Z,7.93
2019-03-29T15:26:22.431Z,7.37
2019-03-29T15:28:52.324Z,5.93
2019-03-29T15:31:22.263Z,6.40
2019-03-29T15:33:55.358Z,7.13
2019-03-29T15:36:23.666Z,7.53
2019-03-29T15:38:53.507Z,5.63
2019-03-29T15:41:23.444Z,6.30
2019-03-29T15:43:53.366Z,5.43
2019-03-29T15:46:23.301Z,11.17
2019-03-29T15:48:53.226Z,6.73
2019-03-29T15:51:23.155Z,6.53
2019-03-29T15:53:53.004Z,6.23
2019-03-29T15:56:22.952Z,6.73
2019-03-29T15:58:52.891Z,7.33
2019-03-29T16:01:22.726Z,6.43
2019-03-29T16:03:52.598Z,6.60
2019-03-29T16:06:22.537Z,7.13
2019-03-29T16:08:52.468Z,5.70
2019-03-29T16:11:22.725Z,7.33
2019-03-29T16:13:52.740Z,6.40
2019-03-29T16:16:22.680Z,7.07
2019-03-29T16:18:52.533Z,7.87
2019-03-29T16:21:22.480Z,6.67
2019-03-29T16:23:52.412Z,6.87
2019-03-29T16:26:22.279Z,5.77
2019-03-29T16:28:52.139Z,5.83
2019-03-29T16:31:22.084Z,6.90
2019-03-29T16:33:52.016Z,6.43
2019-03-29T16:36:21.896Z,7.50
2019-03-29T16:38:51.769Z,6.30
2019-03-29T16:41:21.641Z,6.37
2019-03-29T16:43:51.574Z,5.33
2019-03-29T16:46:21.959Z,5.87
2019-03-29T16:48:52.038Z,6.23
2019-03-29T16:51:21.960Z,7.80
2019-03-29T16:53:51.812Z,5.53
2019-03-29T16:56:21.675Z,7.57
2019-03-29T16:58:51.600Z,6.57
2019-03-29T17:01:21.457Z,7.20
2019-03-29T17:03:51.309Z,7.13
2019-03-29T17:06:21.260Z,9.10
2019-03-29T17:08:51.113Z,6.60
2019-03-29T17:11:20.979Z,7.73
2019-03-29T17:13:50.855Z,6.67
2019-03-29T17:16:30.224Z,8.00
2019-03-29T17:18:52.365Z,9.30
2019-03-29T17:21:22.215Z,9.03
2019-03-29T17:23:52.889Z,7.40
2019-03-29T17:26:23.047Z,7.17
2019-03-29T17:28:52.966Z,7.53
2019-03-29T17:31:22.860Z,5.73
2019-03-29T17:33:52.786Z,7.53
2019-03-29T17:36:22.728Z,5.83
2019-03-29T17:38:52.657Z,6.17
2019-03-29T17:41:22.525Z,7.97
2019-03-29T17:43:52.431Z,8.63
2019-03-29T17:46:22.353Z,7.23
2019-03-29T17:48:52.350Z,6.50
2019-03-29T17:51:22.364Z,8.43
2019-03-29T17:53:52.289Z,7.67
2019-03-29T17:56:22.259Z,6.77
2019-03-29T17:58:52.176Z,7.27
2019-03-29T18:01:22.185Z,6.47
2019-03-29T18:03:52.119Z,6.90
2019-03-29T18:06:22.026Z,8.13
2019-03-29T18:08:52.121Z,7.00
2019-03-29T18:11:24.568Z,7.07
2019-03-29T18:13:54.611Z,6.63
2019-03-29T18:16:30.945Z,7.40
2019-03-29T18:18:56.574Z,11.17
2019-03-29T18:21:26.601Z,6.90
2019-03-29T18:23:56.535Z,7.30
2019-03-29T18:26:26.480Z,7.03
2019-03-29T18:28:56.456Z,7.63
2019-03-29T18:31:26.724Z,7.20
2019-03-29T18:33:56.742Z,9.13
2019-03-29T18:36:26.841Z,8.90
2019-03-29T18:38:56.958Z,7.87
2019-03-29T18:41:26.889Z,9.57
2019-03-29T18:43:56.763Z,7.77
2019-03-29T18:46:27.768Z,7.73
2019-03-29T18:48:57.655Z,11.23
2019-03-29T18:51:27.504Z,9.13
2019-03-29T18:53:57.361Z,9.73
2019-03-29T18:56:27.219Z,11.37
2019-03-29T18:58:57.193Z,13.40
2019-03-29T19:01:27.121Z,11.70
2019-03-29T19:03:57.055Z,10.07
2019-03-29T19:06:26.990Z,10.60
2019-03-29T19:08:56.927Z,10.80
2019-03-29T19:11:26.869Z,12.90
2019-03-29T19:13:56.902Z,9.70
2019-03-29T19:16:26.790Z,11.17
2019-03-29T19:19:09.435Z,9.63
2019-03-29T19:21:28.347Z,8.70
2019-03-29T19:23:58.229Z,8.17
2019-03-29T19:26:28.090Z,10.50
2019-03-29T19:28:58.013Z,11.10
2019-03-29T19:31:27.879Z,10.37
2019-03-29T19:33:57.732Z,8.93
2019-03-29T19:36:27.695Z,10.03
2019-03-29T19:38:57.567Z,8.67
2019-03-29T19:41:27.560Z,11.13
2019-03-29T19:43:57.514Z,10.73
2019-03-29T19:46:27.427Z,9.67
2019-03-29T19:48:57.780Z,10.70
2019-03-29T19:51:28.121Z,11.07
2019-03-29T19:54:07.213Z,12.00
2019-03-29T19:56:29.683Z,10.90
2019-03-29T19:58:59.688Z,11.00
2019-03-29T20:01:29.560Z,9.50
2019-03-29T20:03:59.488Z,11.57
2019-03-29T20:06:29.463Z,10.93
2019-03-29T20:09:01.037Z,9.47
2019-03-29T20:11:32.558Z,13.10
2019-03-29T20:14:02.470Z,12.10
2019-03-29T20:16:32.337Z,14.13
2019-03-29T20:19:02.244Z,11.63
2019-03-29T20:21:32.136Z,12.60
2019-03-29T20:24:02.036Z,11.07
2019-03-29T20:26:32.006Z,12.47
2019-03-29T20:29:01.942Z,12.00
2019-03-29T20:31:31.869Z,10.83
2019-03-29T20:34:01.838Z,10.87
2019-03-29T20:36:32.821Z,10.90
2019-03-29T20:39:02.853Z,9.73
2019-03-29T20:41:33.884Z,10.40
2019-03-29T20:44:03.993Z,11.43
2019-03-29T20:46:33.848Z,12.13
2019-03-29T20:49:03.727Z,11.77
2019-03-29T20:51:33.580Z,10.33
2019-03-29T20:54:03.618Z,11.53
2019-03-29T20:56:33.564Z,11.00
2019-03-29T20:59:03.577Z,11.77
2019-03-29T21:01:33.503Z,11.63
2019-03-29T21:04:03.508Z,11.20
2019-03-29T21:06:35.014Z,8.87
2019-03-29T21:09:07.161Z,12.33
2019-03-29T21:11:37.269Z,11.43
2019-03-29T21:14:07.227Z,10.80
2019-03-29T21:16:37.128Z,11.53
2019-03-29T21:19:07.002Z,10.80
2019-03-29T21:21:36.928Z,11.37
2019-03-29T21:24:07.880Z,11.37
2019-03-29T21:26:37.725Z,11.77
2019-03-29T21:29:07.693Z,11.70
2019-03-29T21:31:37.622Z,15.60
2019-03-29T21:34:07.497Z,11.60
2019-03-29T21:36:37.359Z,10.87
2019-03-29T21:39:09.190Z,11.80
2019-03-29T21:41:39.075Z,12.37
2019-03-29T21:44:09.022Z,10.53
2019-03-29T21:46:38.971Z,10.53
2019-03-29T21:49:08.836Z,11.03
2019-03-29T21:51:38.771Z,12.27
2019-03-29T21:54:08.631Z,11.50
2019-03-29T21:56:38.505Z,12.40
2019-03-29T21:59:08.448Z,14.73
2019-03-29T22:01:38.330Z,11.80
2019-03-29T22:04:08.289Z,10.83
2019-03-29T22:06:38.256Z,12.20
2019-03-29T22:09:08.741Z,12.97
2019-03-29T22:11:38.756Z,11.37
2019-03-29T22:14:08.752Z,10.63
2019-03-29T22:16:38.611Z,10.23
2019-03-29T22:19:08.599Z,9.60
2019-03-29T22:21:38.495Z,12.23
2019-03-29T22:24:08.431Z,9.40
2019-03-29T22:26:38.304Z,10.57
2019-03-29T22:29:08.240Z,9.17
2019-03-29T22:31:38.153Z,9.37
2019-03-29T22:34:09.083Z,11.57
2019-03-29T22:36:38.932Z,10.20
2019-03-29T22:39:08.871Z,12.43
2019-03-29T22:41:38.821Z,11.50
2019-03-29T22:44:08.689Z,11.87
2019-03-29T22:46:38.542Z,14.40
2019-03-29T22:49:08.480Z,13.83
2019-03-29T22:51:38.331Z,13.97
2019-03-29T22:54:08.280Z,11.70
2019-03-29T22:56:38.127Z,12.83
2019-03-29T22:59:10.991Z,12.37
2019-03-29T23:01:43.575Z,10.73
2019-03-29T23:04:13.664Z,11.23
2019-03-29T23:06:43.602Z,11.73
2019-03-29T23:09:13.534Z,12.53
2019-03-29T23:11:43.474Z,13.50
2019-03-29T23:14:13.416Z,13.87
2019-03-29T23:16:43.361Z,11.70
2019-03-29T23:19:13.288Z,14.30
2019-03-29T23:21:44.058Z,12.83
2019-03-29T23:24:14.934Z,15.33
2019-03-29T23:26:44.968Z,14.63
2019-03-29T23:29:14.903Z,13.50
2019-03-29T23:31:44.856Z,16.03
2019-03-29T23:34:14.880Z,17.63
2019-03-29T23:36:44.823Z,16.63
2019-03-29T23:39:14.866Z,16.43
2019-03-29T23:41:44.741Z,15.47
2019-03-29T23:44:14.592Z,16.97
2019-03-29T23:46:44.462Z,19.80
2019-03-29T23:49:20.899Z,20.80
2019-03-29T23:51:46.120Z,16.30
2019-03-29T23:54:16.052Z,15.73
2019-03-29T23:56:45.926Z,15.63
2019-03-29T23:59:16.869Z,17.70
